sensor_id;sensor_type;location;lat;lon;timestamp;P1;durP1;ratioP1;P2;durP2;ratioP2
34535;SDS011;20779;55.596;37.538;2022-08-03T00:01:47;15.50;;;5.05;;
34535;SDS011;20779;55.596;37.538;2022-08-03T00:04:13;10.35;;;4.85;;
34535;SDS011;20779;55.596;37.538;2022-08-03T00:06:40;9.80;;;4.78;;
34535;SDS011;20779;55.596;37.538;2022-08-03T00:09:06;13.48;;;5.32;;
34535;SDS011;20779;55.596;37.538;2022-08-03T00:11:33;8.73;;;5.13;;
34535;SDS011;20779;55.596;37.538;2022-08-03T00:14:00;12.75;;;5.40;;
34535;SDS011;20779;55.596;37.538;2022-08-03T00:16:26;10.23;;;4.75;;
34535;SDS011;20779;55.596;37.538;2022-08-03T00:18:52;11.35;;;4.90;;
34535;SDS011;20779;55.596;37.538;2022-08-03T00:21:19;12.68;;;5.05;;
34535;SDS011;20779;55.596;37.538;2022-08-03T00:23:45;9.10;;;4.63;;
34535;SDS011;20779;55.596;37.538;2022-08-03T00:26:11;7.60;;;4.70;;
34535;SDS011;20779;55.596;37.538;2022-08-03T00:28:37;12.55;;;4.93;;
34535;SDS011;20779;55.596;37.538;2022-08-03T00:31:03;10.55;;;5.05;;
34535;SDS011;20779;55.596;37.538;2022-08-03T00:33:31;12.30;;;5.05;;
34535;SDS011;20779;55.596;37.538;2022-08-03T00:35:57;10.85;;;5.20;;
34535;SDS011;20779;55.596;37.538;2022-08-03T00:38:23;11.52;;;5.00;;
34535;SDS011;20779;55.596;37.538;2022-08-03T00:40:50;9.35;;;5.07;;
34535;SDS011;20779;55.596;37.538;2022-08-03T00:43:16;10.52;;;5.22;;
34535;SDS011;20779;55.596;37.538;2022-08-03T00:45:52;8.13;;;4.90;;
34535;SDS011;20779;55.596;37.538;2022-08-03T00:48:19;11.88;;;7.00;;
34535;SDS011;20779;55.596;37.538;2022-08-03T00:50:45;12.57;;;4.85;;
34535;SDS011;20779;55.596;37.538;2022-08-03T00:53:12;11.13;;;4.88;;
34535;SDS011;20779;55.596;37.538;2022-08-03T00:55:39;13.13;;;5.85;;
34535;SDS011;20779;55.596;37.538;2022-08-03T00:58:06;10.35;;;5.18;;
34535;SDS011;20779;55.596;37.538;2022-08-03T01:00:35;14.27;;;4.95;;
34535;SDS011;20779;55.596;37.538;2022-08-03T01:03:05;11.88;;;5.00;;
34535;SDS011;20779;55.596;37.538;2022-08-03T01:05:45;11.43;;;5.57;;
34535;SDS011;20779;55.596;37.538;2022-08-03T01:14:08;9.52;;;5.22;;
34535;SDS011;20779;55.596;37.538;2022-08-03T01:17:08;9.48;;;5.43;;
34535;SDS011;20779;55.596;37.538;2022-08-03T01:24:49;9.93;;;5.47;;
34535;SDS011;20779;55.596;37.538;2022-08-03T01:27:30;12.50;;;5.45;;
34535;SDS011;20779;55.596;37.538;2022-08-03T01:30:30;12.30;;;5.22;;
34535;SDS011;20779;55.596;37.538;2022-08-03T01:33:02;10.18;;;5.25;;
34535;SDS011;20779;55.596;37.538;2022-08-03T01:38:31;10.18;;;5.45;;
34535;SDS011;20779;55.596;37.538;2022-08-03T01:41:07;10.13;;;4.82;;
34535;SDS011;20779;55.596;37.538;2022-08-03T01:43:38;13.07;;;5.03;;
34535;SDS011;20779;55.596;37.538;2022-08-03T01:46:07;10.45;;;5.80;;
34535;SDS011;20779;55.596;37.538;2022-08-03T01:48:35;11.82;;;5.28;;
34535;SDS011;20779;55.596;37.538;2022-08-03T01:51:04;9.38;;;5.55;;
34535;SDS011;20779;55.596;37.538;2022-08-03T01:53:33;10.40;;;5.90;;
34535;SDS011;20779;55.596;37.538;2022-08-03T01:56:03;9.60;;;5.20;;
34535;SDS011;20779;55.596;37.538;2022-08-03T01:58:32;14.68;;;5.53;;
34535;SDS011;20779;55.596;37.538;2022-08-03T02:01:01;12.18;;;6.47;;
34535;SDS011;20779;55.596;37.538;2022-08-03T02:03:30;12.98;;;6.18;;
34535;SDS011;20779;55.596;37.538;2022-08-03T02:06:01;13.35;;;6.03;;
34535;SDS011;20779;55.596;37.538;2022-08-03T02:08:28;15.68;;;5.88;;
34535;SDS011;20779;55.596;37.538;2022-08-03T02:10:56;13.30;;;5.75;;
34535;SDS011;20779;55.596;37.538;2022-08-03T02:13:24;8.43;;;5.50;;
34535;SDS011;20779;55.596;37.538;2022-08-03T02:15:52;10.98;;;5.38;;
34535;SDS011;20779;55.596;37.538;2022-08-03T02:18:19;9.23;;;5.20;;
34535;SDS011;20779;55.596;37.538;2022-08-03T02:20:45;15.70;;;5.82;;
34535;SDS011;20779;55.596;37.538;2022-08-03T02:23:15;10.30;;;5.70;;
34535;SDS011;20779;55.596;37.538;2022-08-03T02:25:46;12.88;;;5.85;;
34535;SDS011;20779;55.596;37.538;2022-08-03T02:28:18;16.67;;;5.97;;
34535;SDS011;20779;55.596;37.538;2022-08-03T02:30:49;10.23;;;5.47;;
34535;SDS011;20779;55.596;37.538;2022-08-03T02:33:32;16.15;;;6.15;;
34535;SDS011;20779;55.596;37.538;2022-08-03T02:36:02;9.93;;;5.85;;
34535;SDS011;20779;55.596;37.538;2022-08-03T02:38:32;9.68;;;5.30;;
34535;SDS011;20779;55.596;37.538;2022-08-03T02:41:02;12.95;;;5.95;;
34535;SDS011;20779;55.596;37.538;2022-08-03T02:43:34;9.85;;;5.43;;
34535;SDS011;20779;55.596;37.538;2022-08-03T02:46:01;11.15;;;5.78;;
34535;SDS011;20779;55.596;37.538;2022-08-03T02:48:29;10.05;;;5.53;;
34535;SDS011;20779;55.596;37.538;2022-08-03T02:50:57;12.25;;;5.88;;
34535;SDS011;20779;55.596;37.538;2022-08-03T02:53:25;10.82;;;5.95;;
34535;SDS011;20779;55.596;37.538;2022-08-03T02:55:52;7.60;;;5.38;;
34535;SDS011;20779;55.596;37.538;2022-08-03T02:58:19;10.25;;;5.38;;
34535;SDS011;20779;55.596;37.538;2022-08-03T03:00:46;10.98;;;5.85;;
34535;SDS011;20779;55.596;37.538;2022-08-03T03:03:16;13.05;;;5.80;;
34535;SDS011;20779;55.596;37.538;2022-08-03T03:05:43;12.00;;;5.30;;
34535;SDS011;20779;55.596;37.538;2022-08-03T03:08:14;10.95;;;5.38;;
34535;SDS011;20779;55.596;37.538;2022-08-03T03:10:43;9.73;;;4.85;;
34535;SDS011;20779;55.596;37.538;2022-08-03T03:13:11;15.27;;;6.10;;
34535;SDS011;20779;55.596;37.538;2022-08-03T03:15:39;13.60;;;6.10;;
34535;SDS011;20779;55.596;37.538;2022-08-03T03:18:08;9.95;;;5.03;;
34535;SDS011;20779;55.596;37.538;2022-08-03T03:20:35;11.65;;;5.63;;
34535;SDS011;20779;55.596;37.538;2022-08-03T03:23:03;14.77;;;5.32;;
34535;SDS011;20779;55.596;37.538;2022-08-03T03:25:30;15.02;;;5.30;;
34535;SDS011;20779;55.596;37.538;2022-08-03T03:28:00;14.48;;;5.57;;
34535;SDS011;20779;55.596;37.538;2022-08-03T03:30:27;8.05;;;5.38;;
34535;SDS011;20779;55.596;37.538;2022-08-03T03:32:54;9.60;;;5.43;;
34535;SDS011;20779;55.596;37.538;2022-08-03T03:35:22;10.13;;;5.70;;
34535;SDS011;20779;55.596;37.538;2022-08-03T03:37:48;14.25;;;4.75;;
34535;SDS011;20779;55.596;37.538;2022-08-03T03:40:14;10.70;;;5.50;;
34535;SDS011;20779;55.596;37.538;2022-08-03T03:42:41;12.68;;;4.97;;
34535;SDS011;20779;55.596;37.538;2022-08-03T03:45:07;11.50;;;4.97;;
34535;SDS011;20779;55.596;37.538;2022-08-03T03:47:34;13.15;;;5.05;;
34535;SDS011;20779;55.596;37.538;2022-08-03T03:50:04;15.13;;;5.10;;
34535;SDS011;20779;55.596;37.538;2022-08-03T03:52:32;12.63;;;5.40;;
34535;SDS011;20779;55.596;37.538;2022-08-03T03:54:58;16.40;;;6.65;;
34535;SDS011;20779;55.596;37.538;2022-08-03T03:57:25;13.38;;;5.40;;
34535;SDS011;20779;55.596;37.538;2022-08-03T03:59:52;9.57;;;5.95;;
34535;SDS011;20779;55.596;37.538;2022-08-03T04:02:18;13.75;;;5.18;;
34535;SDS011;20779;55.596;37.538;2022-08-03T04:04:44;7.85;;;5.00;;
34535;SDS011;20779;55.596;37.538;2022-08-03T04:07:31;15.85;;;5.25;;
34535;SDS011;20779;55.596;37.538;2022-08-03T04:11:10;12.25;;;5.55;;
34535;SDS011;20779;55.596;37.538;2022-08-03T04:13:36;15.25;;;5.78;;
34535;SDS011;20779;55.596;37.538;2022-08-03T04:16:17;11.57;;;5.10;;
34535;SDS011;20779;55.596;37.538;2022-08-03T04:18:48;12.18;;;5.13;;
34535;SDS011;20779;55.596;37.538;2022-08-03T04:21:19;7.30;;;5.10;;
34535;SDS011;20779;55.596;37.538;2022-08-03T04:23:48;8.10;;;5.22;;
34535;SDS011;20779;55.596;37.538;2022-08-03T04:26:21;10.40;;;5.20;;
34535;SDS011;20779;55.596;37.538;2022-08-03T04:28:49;7.53;;;5.40;;
34535;SDS011;20779;55.596;37.538;2022-08-03T04:31:17;13.60;;;5.63;;
34535;SDS011;20779;55.596;37.538;2022-08-03T04:33:46;7.85;;;5.45;;
34535;SDS011;20779;55.596;37.538;2022-08-03T04:36:16;18.08;;;5.68;;
34535;SDS011;20779;55.596;37.538;2022-08-03T04:38:59;13.30;;;6.07;;
34535;SDS011;20779;55.596;37.538;2022-08-03T04:41:42;9.57;;;5.65;;
34535;SDS011;20779;55.596;37.538;2022-08-03T04:44:11;10.43;;;5.68;;
34535;SDS011;20779;55.596;37.538;2022-08-03T04:46:39;10.68;;;5.85;;
34535;SDS011;20779;55.596;37.538;2022-08-03T04:49:06;10.32;;;5.82;;
34535;SDS011;20779;55.596;37.538;2022-08-03T04:51:33;11.10;;;5.35;;
34535;SDS011;20779;55.596;37.538;2022-08-03T04:54:02;18.88;;;6.18;;
34535;SDS011;20779;55.596;37.538;2022-08-03T04:56:29;14.95;;;5.93;;
34535;SDS011;20779;55.596;37.538;2022-08-03T04:58:55;12.80;;;5.55;;
34535;SDS011;20779;55.596;37.538;2022-08-03T05:01:22;14.55;;;5.90;;
34535;SDS011;20779;55.596;37.538;2022-08-03T05:03:48;9.68;;;5.43;;
34535;SDS011;20779;55.596;37.538;2022-08-03T05:06:15;11.48;;;6.05;;
34535;SDS011;20779;55.596;37.538;2022-08-03T05:08:42;9.45;;;4.82;;
34535;SDS011;20779;55.596;37.538;2022-08-03T05:11:08;11.27;;;5.70;;
34535;SDS011;20779;55.596;37.538;2022-08-03T05:13:34;11.40;;;5.30;;
34535;SDS011;20779;55.596;37.538;2022-08-03T05:16:00;11.07;;;5.50;;
34535;SDS011;20779;55.596;37.538;2022-08-03T05:18:27;13.82;;;6.35;;
34535;SDS011;20779;55.596;37.538;2022-08-03T05:20:53;15.57;;;5.38;;
34535;SDS011;20779;55.596;37.538;2022-08-03T05:23:19;11.75;;;5.13;;
34535;SDS011;20779;55.596;37.538;2022-08-03T05:25:46;9.50;;;4.95;;
34535;SDS011;20779;55.596;37.538;2022-08-03T05:28:12;12.35;;;5.50;;
34535;SDS011;20779;55.596;37.538;2022-08-03T05:30:39;10.27;;;5.38;;
34535;SDS011;20779;55.596;37.538;2022-08-03T05:33:05;11.70;;;4.90;;
34535;SDS011;20779;55.596;37.538;2022-08-03T05:35:32;8.75;;;5.25;;
34535;SDS011;20779;55.596;37.538;2022-08-03T05:38:01;9.52;;;5.57;;
34535;SDS011;20779;55.596;37.538;2022-08-03T05:40:27;11.77;;;5.57;;
34535;SDS011;20779;55.596;37.538;2022-08-03T05:42:54;13.50;;;5.30;;
34535;SDS011;20779;55.596;37.538;2022-08-03T05:45:21;12.55;;;6.18;;
34535;SDS011;20779;55.596;37.538;2022-08-03T05:47:48;13.88;;;5.50;;
34535;SDS011;20779;55.596;37.538;2022-08-03T05:50:15;14.73;;;6.05;;
34535;SDS011;20779;55.596;37.538;2022-08-03T05:52:43;17.02;;;5.97;;
34535;SDS011;20779;55.596;37.538;2022-08-03T05:55:10;11.35;;;5.10;;
34535;SDS011;20779;55.596;37.538;2022-08-03T05:57:38;11.65;;;5.35;;
34535;SDS011;20779;55.596;37.538;2022-08-03T06:00:06;12.00;;;4.85;;
34535;SDS011;20779;55.596;37.538;2022-08-03T06:02:37;12.73;;;4.97;;
34535;SDS011;20779;55.596;37.538;2022-08-03T06:05:04;13.50;;;5.10;;
34535;SDS011;20779;55.596;37.538;2022-08-03T06:07:31;11.68;;;4.93;;
34535;SDS011;20779;55.596;37.538;2022-08-03T06:09:58;9.23;;;4.60;;
34535;SDS011;20779;55.596;37.538;2022-08-03T06:12:26;14.07;;;4.97;;
34535;SDS011;20779;55.596;37.538;2022-08-03T06:14:53;14.18;;;4.82;;
34535;SDS011;20779;55.596;37.538;2022-08-03T06:17:19;18.90;;;5.43;;
34535;SDS011;20779;55.596;37.538;2022-08-03T06:19:46;14.40;;;4.60;;
34535;SDS011;20779;55.596;37.538;2022-08-03T06:22:12;12.05;;;4.00;;
34535;SDS011;20779;55.596;37.538;2022-08-03T06:24:38;10.32;;;4.35;;
34535;SDS011;20779;55.596;37.538;2022-08-03T06:27:05;11.65;;;4.18;;
34535;SDS011;20779;55.596;37.538;2022-08-03T06:29:31;19.30;;;4.50;;
34535;SDS011;20779;55.596;37.538;2022-08-03T06:31:57;14.52;;;5.45;;
34535;SDS011;20779;55.596;37.538;2022-08-03T06:34:24;15.07;;;4.60;;
34535;SDS011;20779;55.596;37.538;2022-08-03T06:36:50;6.95;;;3.85;;
34535;SDS011;20779;55.596;37.538;2022-08-03T06:39:17;12.05;;;4.43;;
34535;SDS011;20779;55.596;37.538;2022-08-03T06:41:43;9.07;;;3.78;;
34535;SDS011;20779;55.596;37.538;2022-08-03T06:44:10;10.73;;;4.18;;
34535;SDS011;20779;55.596;37.538;2022-08-03T06:46:37;6.90;;;3.92;;
34535;SDS011;20779;55.596;37.538;2022-08-03T06:49:03;9.80;;;3.58;;
34535;SDS011;20779;55.596;37.538;2022-08-03T06:51:30;9.90;;;3.78;;
34535;SDS011;20779;55.596;37.538;2022-08-03T06:53:57;11.90;;;3.25;;
34535;SDS011;20779;55.596;37.538;2022-08-03T06:56:23;13.38;;;3.75;;
34535;SDS011;20779;55.596;37.538;2022-08-03T06:58:49;8.80;;;3.40;;
34535;SDS011;20779;55.596;37.538;2022-08-03T07:01:16;7.57;;;3.10;;
34535;SDS011;20779;55.596;37.538;2022-08-03T07:03:42;10.32;;;3.85;;
34535;SDS011;20779;55.596;37.538;2022-08-03T07:06:09;9.77;;;3.90;;
34535;SDS011;20779;55.596;37.538;2022-08-03T07:08:35;7.25;;;4.10;;
34535;SDS011;20779;55.596;37.538;2022-08-03T07:11:02;12.88;;;3.97;;
34535;SDS011;20779;55.596;37.538;2022-08-03T07:13:28;7.00;;;3.33;;
34535;SDS011;20779;55.596;37.538;2022-08-03T07:15:54;10.05;;;3.60;;
34535;SDS011;20779;55.596;37.538;2022-08-03T07:18:21;11.20;;;3.90;;
34535;SDS011;20779;55.596;37.538;2022-08-03T07:20:48;13.40;;;3.78;;
34535;SDS011;20779;55.596;37.538;2022-08-03T07:23:14;11.18;;;3.50;;
34535;SDS011;20779;55.596;37.538;2022-08-03T07:25:40;7.90;;;3.47;;
34535;SDS011;20779;55.596;37.538;2022-08-03T07:28:07;9.40;;;3.25;;
34535;SDS011;20779;55.596;37.538;2022-08-03T07:30:33;8.40;;;3.00;;
34535;SDS011;20779;55.596;37.538;2022-08-03T07:33:00;7.95;;;3.70;;
34535;SDS011;20779;55.596;37.538;2022-08-03T07:35:26;14.65;;;4.18;;
34535;SDS011;20779;55.596;37.538;2022-08-03T07:37:54;14.13;;;3.50;;
34535;SDS011;20779;55.596;37.538;2022-08-03T07:40:21;10.98;;;3.45;;
34535;SDS011;20779;55.596;37.538;2022-08-03T07:42:47;11.45;;;3.63;;
34535;SDS011;20779;55.596;37.538;2022-08-03T07:45:14;7.13;;;3.28;;
34535;SDS011;20779;55.596;37.538;2022-08-03T07:47:40;7.30;;;3.20;;
34535;SDS011;20779;55.596;37.538;2022-08-03T07:50:07;9.15;;;2.70;;
34535;SDS011;20779;55.596;37.538;2022-08-03T07:52:33;7.10;;;3.10;;
34535;SDS011;20779;55.596;37.538;2022-08-03T07:55:12;10.23;;;2.95;;
34535;SDS011;20779;55.596;37.538;2022-08-03T07:57:38;4.82;;;2.45;;
34535;SDS011;20779;55.596;37.538;2022-08-03T08:00:05;5.03;;;3.03;;
34535;SDS011;20779;55.596;37.538;2022-08-03T08:02:41;9.20;;;2.88;;
34535;SDS011;20779;55.596;37.538;2022-08-03T08:05:08;6.85;;;3.40;;
34535;SDS011;20779;55.596;37.538;2022-08-03T08:07:36;6.15;;;3.13;;
34535;SDS011;20779;55.596;37.538;2022-08-03T08:10:04;6.65;;;3.30;;
34535;SDS011;20779;55.596;37.538;2022-08-03T08:12:32;6.10;;;3.13;;
34535;SDS011;20779;55.596;37.538;2022-08-03T08:14:58;6.13;;;3.53;;
34535;SDS011;20779;55.596;37.538;2022-08-03T08:17:25;7.85;;;3.90;;
34535;SDS011;20779;55.596;37.538;2022-08-03T08:19:52;6.07;;;3.35;;
34535;SDS011;20779;55.596;37.538;2022-08-03T08:22:19;8.10;;;3.22;;
34535;SDS011;20779;55.596;37.538;2022-08-03T08:24:45;5.68;;;3.20;;
34535;SDS011;20779;55.596;37.538;2022-08-03T08:27:13;9.85;;;3.40;;
34535;SDS011;20779;55.596;37.538;2022-08-03T08:29:40;5.43;;;3.58;;
34535;SDS011;20779;55.596;37.538;2022-08-03T08:32:06;9.77;;;3.35;;
34535;SDS011;20779;55.596;37.538;2022-08-03T08:34:33;6.90;;;4.18;;
34535;SDS011;20779;55.596;37.538;2022-08-03T08:37:00;10.68;;;3.53;;
34535;SDS011;20779;55.596;37.538;2022-08-03T08:39:26;6.93;;;3.60;;
34535;SDS011;20779;55.596;37.538;2022-08-03T08:41:52;6.30;;;2.83;;
34535;SDS011;20779;55.596;37.538;2022-08-03T08:44:19;6.53;;;3.78;;
34535;SDS011;20779;55.596;37.538;2022-08-03T08:46:45;14.32;;;4.32;;
34535;SDS011;20779;55.596;37.538;2022-08-03T08:49:12;10.27;;;3.85;;
34535;SDS011;20779;55.596;37.538;2022-08-03T08:51:43;15.77;;;3.40;;
34535;SDS011;20779;55.596;37.538;2022-08-03T08:54:12;8.00;;;3.42;;
34535;SDS011;20779;55.596;37.538;2022-08-03T08:56:40;8.45;;;3.60;;
34535;SDS011;20779;55.596;37.538;2022-08-03T08:59:07;9.95;;;3.72;;
34535;SDS011;20779;55.596;37.538;2022-08-03T09:01:33;6.40;;;4.13;;
34535;SDS011;20779;55.596;37.538;2022-08-03T09:04:00;11.60;;;3.50;;
34535;SDS011;20779;55.596;37.538;2022-08-03T09:06:30;7.35;;;3.40;;
34535;SDS011;20779;55.596;37.538;2022-08-03T09:08:57;8.15;;;3.40;;
34535;SDS011;20779;55.596;37.538;2022-08-03T09:11:29;11.20;;;3.53;;
34535;SDS011;20779;55.596;37.538;2022-08-03T09:14:35;6.80;;;3.38;;
34535;SDS011;20779;55.596;37.538;2022-08-03T09:20:31;7.65;;;3.17;;
34535;SDS011;20779;55.596;37.538;2022-08-03T09:23:55;12.25;;;3.40;;
34535;SDS011;20779;55.596;37.538;2022-08-03T09:27:07;5.50;;;3.05;;
34535;SDS011;20779;55.596;37.538;2022-08-03T09:30:22;10.57;;;3.60;;
34535;SDS011;20779;55.596;37.538;2022-08-03T09:33:14;7.22;;;3.30;;
34535;SDS011;20779;55.596;37.538;2022-08-03T09:35:57;9.88;;;3.17;;
34535;SDS011;20779;55.596;37.538;2022-08-03T09:42:29;11.90;;;3.10;;
34535;SDS011;20779;55.596;37.538;2022-08-03T09:45:24;6.50;;;3.28;;
34535;SDS011;20779;55.596;37.538;2022-08-03T09:51:26;7.32;;;3.25;;
34535;SDS011;20779;55.596;37.538;2022-08-03T09:54:55;5.50;;;3.40;;
34535;SDS011;20779;55.596;37.538;2022-08-03T10:04:57;8.07;;;2.90;;
34535;SDS011;20779;55.596;37.538;2022-08-03T10:07:48;6.97;;;3.33;;
34535;SDS011;20779;55.596;37.538;2022-08-03T10:11:05;7.05;;;2.97;;
34535;SDS011;20779;55.596;37.538;2022-08-03T10:13:32;6.43;;;2.53;;
34535;SDS011;20779;55.596;37.538;2022-08-03T10:15:59;6.13;;;2.90;;
34535;SDS011;20779;55.596;37.538;2022-08-03T10:18:25;4.97;;;3.50;;
34535;SDS011;20779;55.596;37.538;2022-08-03T10:20:52;4.10;;;3.08;;
34535;SDS011;20779;55.596;37.538;2022-08-03T10:23:25;6.55;;;3.47;;
34535;SDS011;20779;55.596;37.538;2022-08-03T10:25:53;7.28;;;3.17;;
34535;SDS011;20779;55.596;37.538;2022-08-03T10:28:27;6.22;;;3.10;;
34535;SDS011;20779;55.596;37.538;2022-08-03T10:31:06;6.32;;;3.13;;
34535;SDS011;20779;55.596;37.538;2022-08-03T10:33:33;8.98;;;3.17;;
34535;SDS011;20779;55.596;37.538;2022-08-03T10:36:06;9.38;;;3.60;;
34535;SDS011;20779;55.596;37.538;2022-08-03T10:38:36;8.80;;;3.38;;
34535;SDS011;20779;55.596;37.538;2022-08-03T10:41:14;10.32;;;3.40;;
34535;SDS011;20779;55.596;37.538;2022-08-03T10:44:31;10.63;;;3.72;;
34535;SDS011;20779;55.596;37.538;2022-08-03T10:46:43;7.30;;;2.78;;
34535;SDS011;20779;55.596;37.538;2022-08-03T10:49:12;5.63;;;3.28;;
34535;SDS011;20779;55.596;37.538;2022-08-03T10:51:41;6.90;;;3.28;;
34535;SDS011;20779;55.596;37.538;2022-08-03T10:57:45;12.48;;;5.65;;
34535;SDS011;20779;55.596;37.538;2022-08-03T11:00:17;9.73;;;3.22;;
34535;SDS011;20779;55.596;37.538;2022-08-03T11:03:05;7.55;;;2.95;;
34535;SDS011;20779;55.596;37.538;2022-08-03T11:05:36;5.10;;;3.00;;
34535;SDS011;20779;55.596;37.538;2022-08-03T11:10:47;39.13;;;6.28;;
34535;SDS011;20779;55.596;37.538;2022-08-03T11:13:16;9.30;;;3.80;;
34535;SDS011;20779;55.596;37.538;2022-08-03T11:15:45;13.88;;;3.97;;
34535;SDS011;20779;55.596;37.538;2022-08-03T11:18:20;12.75;;;3.63;;
34535;SDS011;20779;55.596;37.538;2022-08-03T11:23:19;11.27;;;3.47;;
34535;SDS011;20779;55.596;37.538;2022-08-03T11:26:17;4.72;;;3.08;;
34535;SDS011;20779;55.596;37.538;2022-08-03T11:28:47;4.90;;;3.08;;
34535;SDS011;20779;55.596;37.538;2022-08-03T11:39:48;9.18;;;3.55;;
34535;SDS011;20779;55.596;37.538;2022-08-03T11:44:54;7.90;;;3.30;;
34535;SDS011;20779;55.596;37.538;2022-08-03T11:47:22;11.82;;;3.80;;
34535;SDS011;20779;55.596;37.538;2022-08-03T11:49:55;8.23;;;2.88;;
34535;SDS011;20779;55.596;37.538;2022-08-03T11:54:52;22.52;;;4.50;;
34535;SDS011;20779;55.596;37.538;2022-08-03T11:57:31;22.42;;;3.78;;
34535;SDS011;20779;55.596;37.538;2022-08-03T11:59:59;9.43;;;3.63;;
34535;SDS011;20779;55.596;37.538;2022-08-03T12:02:27;6.75;;;3.40;;
34535;SDS011;20779;55.596;37.538;2022-08-03T12:04:57;10.20;;;3.50;;
34535;SDS011;20779;55.596;37.538;2022-08-03T12:07:26;11.80;;;3.35;;
34535;SDS011;20779;55.596;37.538;2022-08-03T12:12:54;10.45;;;2.60;;
34535;SDS011;20779;55.596;37.538;2022-08-03T12:15:25;8.75;;;3.03;;
34535;SDS011;20779;55.596;37.538;2022-08-03T12:17:55;5.97;;;3.58;;
34535;SDS011;20779;55.596;37.538;2022-08-03T12:20:27;4.95;;;3.08;;
34535;SDS011;20779;55.596;37.538;2022-08-03T12:23:00;6.38;;;3.30;;
34535;SDS011;20779;55.596;37.538;2022-08-03T12:25:29;9.32;;;4.07;;
34535;SDS011;20779;55.596;37.538;2022-08-03T12:28:10;7.07;;;4.00;;
34535;SDS011;20779;55.596;37.538;2022-08-03T12:30:41;5.35;;;3.33;;
34535;SDS011;20779;55.596;37.538;2022-08-03T12:33:14;12.05;;;4.25;;
34535;SDS011;20779;55.596;37.538;2022-08-03T12:35:45;14.93;;;4.20;;
34535;SDS011;20779;55.596;37.538;2022-08-03T12:38:17;10.52;;;4.10;;
34535;SDS011;20779;55.596;37.538;2022-08-03T12:40:56;5.70;;;3.63;;
34535;SDS011;20779;55.596;37.538;2022-08-03T12:43:29;7.90;;;3.63;;
34535;SDS011;20779;55.596;37.538;2022-08-03T12:46:05;7.30;;;3.90;;
34535;SDS011;20779;55.596;37.538;2022-08-03T12:49:02;6.55;;;3.20;;
34535;SDS011;20779;55.596;37.538;2022-08-03T12:51:35;8.07;;;3.40;;
34535;SDS011;20779;55.596;37.538;2022-08-03T12:54:24;7.30;;;3.63;;
34535;SDS011;20779;55.596;37.538;2022-08-03T12:57:01;8.13;;;3.30;;
34535;SDS011;20779;55.596;37.538;2022-08-03T12:59:34;7.25;;;3.88;;
34535;SDS011;20779;55.596;37.538;2022-08-03T13:02:13;7.47;;;3.17;;
34535;SDS011;20779;55.596;37.538;2022-08-03T13:04:45;13.30;;;4.15;;
34535;SDS011;20779;55.596;37.538;2022-08-03T13:07:13;10.25;;;3.75;;
34535;SDS011;20779;55.596;37.538;2022-08-03T13:09:41;7.63;;;3.28;;
34535;SDS011;20779;55.596;37.538;2022-08-03T13:12:12;6.70;;;2.95;;
34535;SDS011;20779;55.596;37.538;2022-08-03T13:14:50;6.40;;;3.47;;
34535;SDS011;20779;55.596;37.538;2022-08-03T13:17:20;5.22;;;3.08;;
34535;SDS011;20779;55.596;37.538;2022-08-03T13:19:47;8.02;;;2.90;;
34535;SDS011;20779;55.596;37.538;2022-08-03T13:22:24;8.15;;;3.30;;
34535;SDS011;20779;55.596;37.538;2022-08-03T13:24:53;9.63;;;3.47;;
34535;SDS011;20779;55.596;37.538;2022-08-03T13:27:22;10.60;;;3.58;;
34535;SDS011;20779;55.596;37.538;2022-08-03T13:29:49;12.65;;;3.75;;
34535;SDS011;20779;55.596;37.538;2022-08-03T13:32:17;4.30;;;3.13;;
34535;SDS011;20779;55.596;37.538;2022-08-03T13:34:44;11.32;;;3.72;;
34535;SDS011;20779;55.596;37.538;2022-08-03T13:37:12;5.07;;;3.60;;
34535;SDS011;20779;55.596;37.538;2022-08-03T13:39:41;6.10;;;3.40;;
34535;SDS011;20779;55.596;37.538;2022-08-03T13:42:07;11.05;;;4.28;;
34535;SDS011;20779;55.596;37.538;2022-08-03T13:44:34;9.95;;;3.42;;
34535;SDS011;20779;55.596;37.538;2022-08-03T13:47:04;8.18;;;3.40;;
34535;SDS011;20779;55.596;37.538;2022-08-03T13:49:31;5.93;;;3.45;;
34535;SDS011;20779;55.596;37.538;2022-08-03T13:51:58;7.70;;;3.67;;
34535;SDS011;20779;55.596;37.538;2022-08-03T13:54:25;8.15;;;4.00;;
34535;SDS011;20779;55.596;37.538;2022-08-03T13:56:52;6.03;;;3.40;;
34535;SDS011;20779;55.596;37.538;2022-08-03T13:59:20;5.80;;;3.60;;
34535;SDS011;20779;55.596;37.538;2022-08-03T14:01:50;6.00;;;3.22;;
34535;SDS011;20779;55.596;37.538;2022-08-03T14:04:19;5.68;;;2.90;;
34535;SDS011;20779;55.596;37.538;2022-08-03T14:06:46;5.88;;;3.15;;
34535;SDS011;20779;55.596;37.538;2022-08-03T14:09:15;6.53;;;3.47;;
34535;SDS011;20779;55.596;37.538;2022-08-03T14:11:42;7.07;;;3.40;;
34535;SDS011;20779;55.596;37.538;2022-08-03T14:14:09;6.93;;;3.28;;
34535;SDS011;20779;55.596;37.538;2022-08-03T14:16:36;5.85;;;3.75;;
34535;SDS011;20779;55.596;37.538;2022-08-03T14:19:03;7.47;;;3.20;;
34535;SDS011;20779;55.596;37.538;2022-08-03T14:21:31;6.40;;;3.33;;
34535;SDS011;20779;55.596;37.538;2022-08-03T14:23:59;5.38;;;3.00;;
34535;SDS011;20779;55.596;37.538;2022-08-03T14:26:26;5.45;;;3.22;;
34535;SDS011;20779;55.596;37.538;2022-08-03T14:28:55;12.63;;;3.55;;
34535;SDS011;20779;55.596;37.538;2022-08-03T14:31:22;6.60;;;3.40;;
34535;SDS011;20779;55.596;37.538;2022-08-03T14:33:48;10.43;;;3.40;;
34535;SDS011;20779;55.596;37.538;2022-08-03T14:36:15;6.72;;;3.10;;
34535;SDS011;20779;55.596;37.538;2022-08-03T14:38:41;15.35;;;3.95;;
34535;SDS011;20779;55.596;37.538;2022-08-03T14:41:08;5.05;;;3.60;;
34535;SDS011;20779;55.596;37.538;2022-08-03T14:43:35;6.68;;;3.88;;
34535;SDS011;20779;55.596;37.538;2022-08-03T14:46:02;10.35;;;3.28;;
34535;SDS011;20779;55.596;37.538;2022-08-03T14:48:29;8.68;;;3.75;;
34535;SDS011;20779;55.596;37.538;2022-08-03T14:50:55;8.40;;;3.60;;
34535;SDS011;20779;55.596;37.538;2022-08-03T14:53:22;7.55;;;3.30;;
34535;SDS011;20779;55.596;37.538;2022-08-03T14:55:48;7.65;;;3.47;;
34535;SDS011;20779;55.596;37.538;2022-08-03T14:58:15;7.03;;;3.45;;
34535;SDS011;20779;55.596;37.538;2022-08-03T15:00:42;8.02;;;3.10;;
34535;SDS011;20779;55.596;37.538;2022-08-03T15:03:08;7.45;;;3.72;;
34535;SDS011;20779;55.596;37.538;2022-08-03T15:05:35;5.35;;;3.55;;
34535;SDS011;20779;55.596;37.538;2022-08-03T15:08:01;6.38;;;3.53;;
34535;SDS011;20779;55.596;37.538;2022-08-03T15:10:28;9.52;;;5.22;;
34535;SDS011;20779;55.596;37.538;2022-08-03T15:12:54;10.55;;;3.72;;
34535;SDS011;20779;55.596;37.538;2022-08-03T15:15:21;7.00;;;4.00;;
34535;SDS011;20779;55.596;37.538;2022-08-03T15:17:47;8.57;;;4.35;;
34535;SDS011;20779;55.596;37.538;2022-08-03T15:20:13;6.38;;;3.50;;
34535;SDS011;20779;55.596;37.538;2022-08-03T15:22:40;9.88;;;3.90;;
34535;SDS011;20779;55.596;37.538;2022-08-03T15:25:06;7.45;;;3.95;;
34535;SDS011;20779;55.596;37.538;2022-08-03T15:27:33;9.23;;;3.88;;
34535;SDS011;20779;55.596;37.538;2022-08-03T15:29:59;7.82;;;3.30;;
34535;SDS011;20779;55.596;37.538;2022-08-03T15:32:26;6.65;;;4.05;;
34535;SDS011;20779;55.596;37.538;2022-08-03T15:34:52;6.75;;;4.00;;
34535;SDS011;20779;55.596;37.538;2022-08-03T15:37:19;7.00;;;3.72;;
34535;SDS011;20779;55.596;37.538;2022-08-03T15:39:46;7.88;;;3.60;;
34535;SDS011;20779;55.596;37.538;2022-08-03T15:42:12;11.00;;;3.50;;
34535;SDS011;20779;55.596;37.538;2022-08-03T15:44:39;12.77;;;3.80;;